LGZALGSA

Guest
Details From LGZA - Dionysios Solomos
To LGSA - Khania Souda
Flight Number -
Tags generated
Created
Modified
Stats Distance 215 nm / 398 km
Max Altitude 25,800 ft / 7,864 m
Waypoints 4
Social Downloads 0
Likes 0
Share VATSIM

Download

Looking for another format? Having issues loading an existing format? Contact us
Advertisement - Login to hide

Notes

Basic altitude profile: - Ascent Rate: 2500ft/min - Ascent Speed: 250kts - Cruise Altitude: 35000ft - Cruise Speed: 420kts - Descent Rate: 1500ft/min - Descent Speed: 250kts Options: - Use NATs: yes - Use PACOTS: yes - Use low airways: yes - Use high airways: yes

Route

LGZA TRL UJ65 SOKRI LGSA

ID Type Via Altitude Latitude Longitude Leg Dist Tot Dist Heading (true) Name
O LGZA APT - 0 ft / 0 m 37.75123˚ 20.88411˚ - 0 nm - Dionysios Solomos
TRL VOR - 25,800 ft / 7,864 m 37.40275˚ 22.33963˚ 72 nm 72 nm 106° / 107° TRIPOLIS VOR-DME
SOKRI FIX UJ65 (AWY-HI) 23,500 ft / 7,163 m 36.25778˚ 23.47194˚ 87 nm 160 nm 141° / 142° -
O LGSA APT - 0 ft / 0 m 35.53159˚ 24.15118˚ 54 nm 214 nm 143° / 143° Khania Souda

Altitude Profile

Advertisement - Login to hide

Weather


0- 5 10 15 20 25 30 35+ Temperature / ° C

Clouds and Precipitation
Forecast for 2017-07-25 18:00 UTC. Updated an hour ago

Ground ~20,000 ft ~40,000 ft Winds

LGZA

Details ICAO LGZA (ZTH)
Name Dionysios Solomos
Region Greece
Timezone Europe/Athens (UTC+3.0)
Stats Elevation 14 ft / 4 m (AMSL)
Location 37.751230° 20.884106°
Runways 1
Magnetic Variation 4.034° E

METAR

LGZA 251620Z 13004KT 9999 FEW025 30/24 Q1004

Decode

TAF

Not found

Departure Runways

ID Width Length Bearing (true) Bearing (mag) Surface Threshold Offset Overrun Length
16 148 ft / 45 m 7,315 ft / 2,230 m 163.49° 159.46° Asphalt 715 ft / 218 m 112 ft / 34 m
34 148 ft / 45 m 7,315 ft / 2,230 m 343.49° 339.46° Asphalt 728 ft / 222 m 135 ft / 41 m

LGSA

Details ICAO LGSA (CHQ)
Name Khania Souda
Region Greece
Timezone Europe/Athens (UTC+3.0)
Stats Elevation 490 ft / 149 m (AMSL)
Location 35.531592° 24.151184°
Runways 1
Magnetic Variation 4.245° E

METAR

LGSA 251620Z 31015G25KT CAVOK 32/20 Q1005

Decode

TAF

TAF LGSA 251100Z 2512/2612 30012KT CAVOK TEMPO 2512/2518 30012G22KT

Decode

Destination Runways

ID Width Length Bearing (true) Bearing (mag) Surface Threshold Offset Overrun Length
11 148 ft / 45 m 10,967 ft / 3,343 m 111.40° 107.15° Asphalt 0 ft / 0 m 735 ft / 224 m
29 148 ft / 45 m 10,967 ft / 3,343 m 291.42° 287.17° Asphalt 0 ft / 0 m 900 ft / 274 m

Popular Alternatives